createdAt,value
2022-11-16T00:00:58.482Z,49.20
2022-11-16T00:03:25.421Z,47.80
2022-11-16T00:05:57.589Z,55.10
2022-11-16T00:08:24.736Z,55.90
2022-11-16T00:10:51.688Z,44.00
2022-11-16T00:13:18.744Z,52.30
2022-11-16T00:15:56.530Z,46.30
2022-11-16T00:18:23.473Z,45.70
2022-11-16T00:20:50.926Z,49.50
2022-11-16T00:23:17.874Z,46.20
2022-11-16T00:25:44.720Z,46.50
2022-11-16T00:28:11.761Z,50.40
2022-11-16T00:30:38.500Z,48.60
2022-11-16T00:33:05.975Z,43.70
2022-11-16T00:35:39.321Z,47.90
2022-11-16T00:38:06.403Z,37.80
2022-11-16T00:40:33.142Z,41.80
2022-11-16T00:42:59.982Z,58.90
2022-11-16T00:45:26.928Z,42.80
2022-11-16T00:47:59.172Z,47.70
2022-11-16T00:50:31.464Z,46.80
2022-11-16T00:52:58.616Z,31.30
2022-11-16T00:55:25.869Z,50.40
2022-11-16T00:57:55.269Z,60.30
2022-11-16T01:00:23.545Z,50.60
2022-11-16T01:02:53.971Z,54.90
2022-11-16T01:05:21.527Z,65.90
2022-11-16T01:07:48.676Z,40.70
2022-11-16T01:10:20.273Z,53.10
2022-11-16T01:12:48.406Z,47.00
2022-11-16T01:15:17.101Z,51.30
2022-11-16T01:17:44.037Z,53.80
2022-11-16T01:20:15.025Z,48.20
2022-11-16T01:22:41.928Z,53.40
2022-11-16T01:25:11.218Z,52.60
2022-11-16T01:27:38.775Z,58.90
2022-11-16T01:30:11.696Z,52.70
2022-11-16T01:32:41.981Z,55.30
2022-11-16T01:35:10.157Z,49.60
2022-11-16T01:37:36.797Z,64.30
2022-11-16T01:40:04.760Z,55.10
2022-11-16T01:42:33.241Z,58.20
2022-11-16T01:45:03.057Z,48.10
2022-11-16T01:47:29.846Z,56.00
2022-11-16T01:50:14.569Z,45.60
2022-11-16T01:52:56.250Z,39.80
2022-11-16T01:55:24.903Z,50.10
2022-11-16T01:58:14.149Z,52.70
2022-11-16T02:00:41.029Z,48.90
2022-11-16T02:03:22.140Z,48.30
2022-11-16T02:06:25.239Z,48.90
2022-11-16T02:09:33.619Z,53.60
2022-11-16T02:12:31.355Z,52.60
2022-11-16T02:15:30.012Z,46.40
2022-11-16T02:18:46.474Z,38.30
2022-11-16T02:21:42.359Z,48.60
2022-11-16T02:24:46.794Z,49.50
2022-11-16T02:27:56.599Z,49.90
2022-11-16T02:30:23.223Z,57.50
2022-11-16T02:32:55.160Z,43.90
2022-11-16T02:35:28.701Z,47.80
2022-11-16T02:37:59.762Z,42.00
2022-11-16T02:40:30.149Z,45.30
2022-11-16T02:43:29.134Z,39.40
2022-11-16T02:45:59.224Z,38.00
2022-11-16T02:48:34.523Z,39.30
2022-11-16T02:51:01.240Z,42.30
2022-11-16T02:57:03.990Z,44.40
2022-11-16T02:59:41.643Z,45.30
2022-11-16T03:02:22.869Z,43.10
2022-11-16T03:04:55.321Z,42.60
2022-11-16T03:07:27.318Z,39.10
2022-11-16T03:09:56.039Z,34.10
2022-11-16T03:12:26.368Z,42.90
2022-11-16T03:14:59.445Z,39.80
2022-11-16T03:17:42.957Z,44.00
2022-11-16T03:20:24.501Z,39.90
2022-11-16T03:22:59.467Z,36.10
2022-11-16T03:28:57.710Z,33.40
2022-11-16T03:31:44.483Z,43.10
2022-11-16T03:34:16.672Z,40.40
2022-11-16T03:36:46.261Z,37.00
2022-11-16T03:39:31.537Z,42.40
2022-11-16T03:42:00.268Z,40.70
2022-11-16T03:44:28.518Z,34.70
2022-11-16T03:46:56.350Z,38.50
2022-11-16T03:49:25.102Z,34.00
2022-11-16T03:51:53.924Z,37.00
2022-11-16T03:54:22.289Z,35.50
2022-11-16T03:56:50.464Z,34.40
2022-11-16T03:59:18.434Z,29.00
2022-11-16T04:01:46.558Z,28.10
2022-11-16T04:04:35.096Z,36.30
2022-11-16T04:07:23.986Z,34.10
2022-11-16T04:10:10.791Z,37.00
2022-11-16T04:13:02.641Z,30.90
2022-11-16T04:15:49.177Z,39.60
2022-11-16T04:18:36.659Z,28.10
2022-11-16T04:21:24.235Z,30.90
2022-11-16T04:24:12.089Z,34.90
2022-11-16T04:27:01.698Z,27.70
2022-11-16T04:29:29.894Z,28.80
2022-11-16T04:32:24.735Z,29.30
2022-11-16T04:35:12.157Z,30.50
2022-11-16T04:37:49.238Z,30.30
2022-11-16T04:40:26.492Z,30.80
2022-11-16T04:42:55.936Z,31.40
2022-11-16T04:45:43.099Z,29.60
2022-11-16T04:48:13.638Z,26.50
2022-11-16T04:50:42.959Z,28.60
2022-11-16T04:53:13.505Z,24.10
2022-11-16T04:55:46.218Z,33.00
2022-11-16T04:58:14.570Z,28.10
2022-11-16T05:00:42.689Z,26.10
2022-11-16T05:03:11.022Z,30.20
2022-11-16T05:05:39.263Z,30.30
2022-11-16T05:08:09.240Z,24.70
2022-11-16T05:10:37.683Z,27.50
2022-11-16T05:13:05.724Z,28.70
2022-11-16T05:15:34.015Z,27.40
2022-11-16T05:18:01.982Z,23.00
2022-11-16T05:20:49.118Z,25.10
2022-11-16T05:23:55.648Z,25.20
2022-11-16T05:26:25.285Z,22.60
2022-11-16T05:28:54.204Z,24.90
2022-11-16T05:31:22.088Z,24.10
2022-11-16T05:33:50.194Z,20.80
2022-11-16T05:36:18.873Z,18.80
2022-11-16T05:38:46.737Z,26.70
2022-11-16T05:41:15.283Z,25.80
2022-11-16T05:43:43.682Z,25.20
2022-11-16T05:46:18.279Z,18.00
2022-11-16T05:48:46.315Z,20.80
2022-11-16T05:51:14.500Z,18.70
2022-11-16T05:53:44.260Z,22.30
2022-11-16T05:56:15.190Z,20.40
2022-11-16T05:58:44.054Z,22.70
2022-11-16T06:01:12.019Z,23.50
2022-11-16T06:03:39.999Z,21.90
2022-11-16T06:06:09.048Z,22.60
2022-11-16T06:08:37.385Z,18.40
2022-11-16T06:11:08.416Z,20.50
2022-11-16T06:13:37.233Z,25.50
2022-11-16T06:16:06.129Z,19.20
2022-11-16T06:18:40.132Z,21.00
2022-11-16T06:21:09.166Z,18.90
2022-11-16T06:23:37.177Z,22.60
2022-11-16T06:26:05.401Z,19.90
2022-11-16T06:28:34.351Z,21.20
2022-11-16T06:31:02.538Z,22.80
2022-11-16T06:33:33.737Z,24.10
2022-11-16T06:36:04.172Z,22.60
2022-11-16T06:38:32.752Z,23.00
2022-11-16T06:41:01.832Z,28.40
2022-11-16T06:43:30.209Z,23.60
2022-11-16T06:45:59.012Z,20.20
2022-11-16T06:48:27.276Z,24.40
2022-11-16T06:50:55.615Z,23.90
2022-11-16T06:53:28.975Z,19.00
2022-11-16T06:56:05.605Z,20.10
2022-11-16T06:58:39.297Z,23.30
2022-11-16T07:01:11.468Z,22.70
2022-11-16T07:03:40.909Z,18.40
2022-11-16T07:06:14.233Z,23.50
2022-11-16T07:08:43.971Z,25.00
2022-11-16T07:11:12.127Z,21.60
2022-11-16T07:13:40.139Z,24.20
2022-11-16T07:16:11.084Z,22.40
2022-11-16T07:18:42.166Z,30.30
2022-11-16T07:21:12.880Z,23.60
2022-11-16T07:23:40.832Z,24.10
2022-11-16T07:26:10.082Z,25.30
2022-11-16T07:28:48.441Z,21.20
2022-11-16T07:31:18.471Z,20.40
2022-11-16T07:33:47.266Z,21.40
2022-11-16T07:36:38.185Z,22.00
2022-11-16T07:39:07.179Z,28.60
2022-11-16T07:41:35.238Z,27.40
2022-11-16T07:44:12.455Z,25.30
2022-11-16T07:46:47.140Z,21.70
2022-11-16T07:49:17.765Z,28.30
2022-11-16T07:51:57.699Z,21.00
2022-11-16T07:54:41.327Z,25.30
2022-11-16T07:57:09.489Z,22.70
2022-11-16T07:59:37.335Z,23.70
2022-11-16T08:02:05.794Z,23.50
2022-11-16T08:04:34.100Z,23.50
2022-11-16T08:07:02.086Z,20.60
2022-11-16T08:09:33.042Z,22.20
2022-11-16T08:12:00.922Z,27.90
2022-11-16T08:14:28.753Z,18.30
2022-11-16T08:16:57.127Z,25.60
2022-11-16T08:19:24.934Z,23.80
2022-11-16T08:21:52.870Z,22.10
2022-11-16T08:24:21.143Z,21.80
2022-11-16T08:26:50.674Z,28.00
2022-11-16T08:29:19.658Z,17.60
2022-11-16T08:31:49.943Z,19.20
2022-11-16T08:34:20.159Z,20.90
2022-11-16T08:36:50.815Z,22.10
2022-11-16T08:39:20.495Z,26.50
2022-11-16T08:41:48.315Z,32.00
2022-11-16T08:44:16.201Z,26.20
2022-11-16T08:46:46.622Z,22.00
2022-11-16T08:49:34.976Z,21.20
2022-11-16T08:52:02.759Z,24.50
2022-11-16T08:54:30.952Z,24.90
2022-11-16T08:56:59.009Z,19.20
2022-11-16T08:59:26.910Z,22.10
2022-11-16T09:01:57.091Z,18.10
2022-11-16T09:04:25.328Z,19.80
2022-11-16T09:06:53.221Z,16.20
2022-11-16T09:09:21.109Z,17.40
2022-11-16T09:11:52.412Z,15.10
2022-11-16T09:14:20.233Z,19.90
2022-11-16T09:16:48.102Z,20.60
2022-11-16T09:19:15.869Z,18.30
2022-11-16T09:21:45.714Z,17.70
2022-11-16T09:24:13.562Z,22.50
2022-11-16T09:26:41.560Z,24.20
2022-11-16T09:29:13.805Z,18.40
2022-11-16T09:35:08.627Z,20.20
2022-11-16T09:37:36.414Z,22.00
2022-11-16T09:40:05.286Z,21.00
2022-11-16T09:43:13.303Z,18.80
2022-11-16T09:46:27.053Z,18.90
2022-11-16T09:48:57.334Z,23.50
2022-11-16T09:51:26.018Z,19.70
2022-11-16T09:54:00.060Z,22.50
2022-11-16T09:56:29.359Z,20.00
2022-11-16T09:59:13.551Z,22.90
2022-11-16T10:02:05.917Z,16.70
2022-11-16T10:04:43.963Z,25.00
2022-11-16T10:07:22.736Z,15.90
2022-11-16T10:09:50.812Z,30.00
2022-11-16T10:12:27.669Z,35.90
2022-11-16T10:15:19.214Z,22.80
2022-11-16T10:17:55.708Z,21.30
2022-11-16T10:21:04.088Z,18.90
2022-11-16T10:23:45.735Z,20.80
2022-11-16T10:26:33.014Z,18.90
2022-11-16T10:29:26.109Z,16.70
2022-11-16T10:32:16.967Z,16.20
2022-11-16T10:34:55.728Z,16.10
2022-11-16T10:37:27.994Z,11.20
2022-11-16T10:39:55.941Z,14.30
2022-11-16T10:42:33.658Z,14.90
2022-11-16T10:45:35.805Z,17.70
2022-11-16T10:48:22.638Z,19.80
2022-11-16T10:50:51.520Z,15.10
2022-11-16T10:53:39.847Z,14.80
2022-11-16T10:56:37.364Z,14.20
2022-11-16T10:59:09.567Z,11.60
2022-11-16T11:01:53.285Z,12.90
2022-11-16T11:04:31.654Z,14.00
2022-11-16T11:07:01.028Z,13.90
2022-11-16T11:09:37.161Z,16.90
2022-11-16T11:12:36.462Z,14.50
2022-11-16T11:15:26.535Z,15.70
2022-11-16T11:18:24.258Z,17.60
2022-11-16T11:20:58.191Z,14.70
2022-11-16T11:23:25.966Z,14.50
2022-11-16T11:25:58.671Z,18.10
2022-11-16T11:28:37.081Z,15.10
2022-11-16T11:31:22.626Z,13.10
2022-11-16T11:33:53.445Z,17.30
2022-11-16T11:36:27.559Z,17.90
2022-11-16T11:39:08.203Z,17.60
2022-11-16T11:41:45.839Z,14.50
2022-11-16T11:44:13.579Z,12.00
2022-11-16T11:49:42.149Z,10.80
2022-11-16T11:52:17.438Z,14.30
2022-11-16T11:54:47.850Z,13.70
2022-11-16T11:57:20.769Z,10.10
2022-11-16T11:59:49.489Z,12.30
2022-11-16T12:02:49.361Z,13.60
2022-11-16T12:05:42.423Z,10.20
2022-11-16T12:08:31.764Z,9.30
2022-11-16T12:11:30.630Z,10.10
2022-11-16T12:14:24.883Z,9.30
2022-11-16T12:17:04.247Z,15.50
2022-11-16T12:20:10.564Z,12.30
2022-11-16T12:22:51.638Z,10.00
2022-11-16T12:25:46.652Z,10.70
2022-11-16T12:29:06.141Z,10.20
2022-11-16T12:31:56.556Z,8.50
2022-11-16T12:34:53.254Z,8.10
2022-11-16T12:37:29.824Z,12.70
2022-11-16T12:40:36.518Z,10.70
2022-11-16T12:43:46.676Z,16.00
2022-11-16T12:46:34.872Z,17.70
2022-11-16T12:49:24.358Z,19.10
2022-11-16T12:52:10.236Z,12.10
2022-11-16T12:55:26.770Z,13.20
2022-11-16T12:58:58.290Z,12.90
2022-11-16T13:01:42.042Z,14.30
2022-11-16T13:04:15.138Z,13.30
2022-11-16T13:06:47.816Z,13.60
2022-11-16T13:09:37.797Z,12.80
2022-11-16T13:12:14.584Z,12.00
2022-11-16T13:14:48.528Z,12.80
2022-11-16T13:17:27.799Z,10.00
2022-11-16T13:20:59.394Z,17.80
2022-11-16T13:23:46.121Z,13.80
2022-11-16T13:26:45.417Z,13.90
2022-11-16T13:29:34.307Z,13.40
2022-11-16T13:32:11.098Z,22.30
2022-11-16T13:34:39.318Z,14.80
2022-11-16T13:37:38.217Z,13.40
2022-11-16T13:40:06.064Z,16.80
2022-11-16T13:42:44.622Z,14.50
2022-11-16T13:45:21.687Z,15.30
2022-11-16T13:47:53.713Z,19.20
2022-11-16T13:50:37.486Z,18.10
2022-11-16T13:56:04.561Z,15.50
2022-11-16T13:58:33.538Z,11.80
2022-11-16T14:01:15.110Z,12.60
2022-11-16T14:03:52.623Z,17.90
2022-11-16T14:06:20.383Z,14.50
2022-11-16T14:08:58.637Z,14.30
2022-11-16T14:11:39.990Z,14.20
2022-11-16T14:14:13.316Z,17.30
2022-11-16T14:16:49.629Z,12.10
2022-11-16T14:19:55.303Z,14.30
2022-11-16T14:22:53.607Z,13.90
2022-11-16T14:25:56.331Z,11.30
2022-11-16T14:28:53.052Z,10.40
2022-11-16T14:31:25.906Z,9.90
2022-11-16T14:33:57.980Z,11.80
2022-11-16T14:36:39.619Z,12.20
2022-11-16T14:39:27.835Z,12.40
2022-11-16T14:42:16.903Z,9.70
2022-11-16T14:44:44.719Z,10.10
2022-11-16T14:50:44.708Z,11.70
2022-11-16T14:53:16.213Z,12.30
2022-11-16T14:55:45.155Z,7.80
2022-11-16T14:58:23.547Z,13.70
2022-11-16T15:01:00.489Z,11.20
2022-11-16T15:04:03.190Z,12.50
2022-11-16T15:06:39.585Z,9.70
2022-11-16T15:09:08.382Z,11.80
2022-11-16T15:11:59.566Z,8.50
2022-11-16T15:14:30.330Z,10.90
2022-11-16T15:16:59.283Z,11.80
2022-11-16T15:19:30.778Z,11.20
2022-11-16T15:22:02.807Z,10.50
2022-11-16T15:24:34.726Z,10.10
2022-11-16T15:27:08.704Z,8.80
2022-11-16T15:29:36.605Z,8.70
2022-11-16T15:32:06.017Z,9.60
2022-11-16T15:34:34.177Z,11.60
2022-11-16T15:37:02.021Z,9.70
2022-11-16T15:39:33.530Z,8.40
2022-11-16T15:42:04.088Z,10.00
2022-11-16T15:44:33.065Z,10.10
2022-11-16T15:47:00.932Z,9.80
2022-11-16T15:49:35.356Z,8.80
2022-11-16T15:52:04.654Z,8.20
2022-11-16T15:54:54.813Z,8.70
2022-11-16T15:57:23.831Z,9.70
2022-11-16T15:59:57.517Z,10.00
2022-11-16T16:02:30.505Z,9.90
2022-11-16T16:04:58.489Z,10.20
2022-11-16T16:07:40.705Z,9.70
2022-11-16T16:10:22.502Z,11.40
2022-11-16T16:12:55.284Z,9.40
2022-11-16T16:15:34.229Z,10.00
2022-11-16T16:18:03.185Z,9.20
2022-11-16T16:20:32.046Z,10.60
2022-11-16T16:23:11.870Z,11.40
2022-11-16T16:25:39.640Z,11.90
2022-11-16T16:28:10.527Z,12.60
2022-11-16T16:30:39.557Z,11.90
2022-11-16T16:33:17.332Z,10.90
2022-11-16T16:35:49.768Z,15.30
2022-11-16T16:38:17.603Z,12.80
2022-11-16T16:40:45.482Z,13.40
2022-11-16T16:43:13.297Z,10.70
2022-11-16T16:45:43.565Z,10.80
2022-11-16T16:48:13.555Z,12.80
2022-11-16T16:50:41.446Z,11.60
2022-11-16T16:53:13.162Z,14.10
2022-11-16T16:55:43.810Z,8.70
2022-11-16T16:58:12.167Z,11.90
2022-11-16T17:00:40.875Z,11.30
2022-11-16T17:03:10.896Z,18.20
2022-11-16T17:05:38.811Z,9.00
2022-11-16T17:08:06.849Z,11.00
2022-11-16T17:10:34.724Z,9.20
2022-11-16T17:13:03.268Z,14.70
2022-11-16T17:15:31.129Z,12.00
2022-11-16T17:17:59.987Z,7.00
2022-11-16T17:20:27.910Z,13.60
2022-11-16T17:22:55.784Z,18.00
2022-11-16T17:25:23.589Z,9.80
2022-11-16T17:27:51.442Z,10.70
2022-11-16T17:30:19.250Z,7.70
2022-11-16T17:32:47.099Z,11.10
2022-11-16T17:35:15.039Z,12.30
2022-11-16T17:37:44.122Z,9.70
2022-11-16T17:40:12.911Z,10.10
2022-11-16T17:42:40.833Z,9.10
2022-11-16T17:45:09.250Z,10.30
2022-11-16T17:47:39.786Z,13.90
2022-11-16T17:50:09.261Z,8.10
2022-11-16T17:52:37.186Z,8.80
2022-11-16T17:55:07.476Z,8.70
2022-11-16T17:57:35.357Z,10.60
2022-11-16T18:00:04.927Z,9.50
2022-11-16T18:02:32.774Z,9.10
2022-11-16T18:05:00.680Z,10.70
2022-11-16T18:07:30.379Z,9.50
2022-11-16T18:09:58.326Z,8.00
2022-11-16T18:12:27.834Z,8.90
2022-11-16T18:15:26.393Z,10.40
2022-11-16T18:17:43.647Z,15.10
2022-11-16T18:20:13.298Z,12.70
2022-11-16T18:22:41.417Z,11.80
2022-11-16T18:25:09.748Z,8.90
2022-11-16T18:27:37.954Z,10.20
2022-11-16T18:30:08.554Z,8.90
2022-11-16T18:32:36.544Z,7.70
2022-11-16T18:35:09.630Z,9.40
2022-11-16T18:37:37.545Z,8.20
2022-11-16T18:40:06.391Z,9.60
2022-11-16T18:42:35.500Z,12.10
2022-11-16T18:45:03.567Z,9.90
2022-11-16T18:47:31.636Z,9.10
2022-11-16T18:49:59.595Z,8.70
2022-11-16T18:52:29.049Z,8.80
2022-11-16T18:54:57.549Z,9.10
2022-11-16T18:57:25.664Z,9.20
2022-11-16T18:59:53.809Z,8.30
2022-11-16T19:02:22.930Z,6.70
2022-11-16T19:04:50.792Z,6.50
2022-11-16T19:07:18.745Z,7.70
2022-11-16T19:09:46.664Z,8.60
2022-11-16T19:12:15.723Z,9.60
2022-11-16T19:14:43.800Z,9.60
2022-11-16T19:17:11.816Z,8.40
2022-11-16T19:19:39.843Z,8.30
2022-11-16T19:22:07.865Z,7.90
2022-11-16T19:24:35.813Z,8.20
2022-11-16T19:27:03.779Z,8.80
2022-11-16T19:29:32.175Z,7.60
2022-11-16T19:32:00.147Z,10.30
2022-11-16T19:34:33.119Z,8.60
2022-11-16T19:37:01.415Z,8.20
2022-11-16T19:39:29.228Z,8.90
2022-11-16T19:41:57.555Z,7.90
2022-11-16T19:44:25.501Z,9.40
2022-11-16T19:46:54.579Z,10.10
2022-11-16T19:49:22.454Z,10.80
2022-11-16T19:51:50.481Z,8.60
2022-11-16T19:54:18.685Z,8.00
2022-11-16T19:56:53.612Z,10.60
2022-11-16T19:59:23.595Z,10.20
2022-11-16T20:01:51.466Z,9.20
2022-11-16T20:04:19.416Z,10.10
2022-11-16T20:06:47.363Z,10.70
2022-11-16T20:09:15.140Z,8.10
2022-11-16T20:11:43.129Z,8.80
2022-11-16T20:14:11.897Z,8.10
2022-11-16T20:16:41.675Z,10.20
2022-11-16T20:19:10.015Z,9.90
2022-11-16T20:21:40.139Z,8.50
2022-11-16T20:24:13.991Z,9.80
2022-11-16T20:26:47.269Z,10.20
2022-11-16T20:29:18.258Z,9.30
2022-11-16T20:31:46.646Z,9.70
2022-11-16T20:34:16.279Z,8.10
2022-11-16T20:36:47.352Z,10.20
2022-11-16T20:39:19.513Z,8.80
2022-11-16T20:41:48.123Z,12.20
2022-11-16T20:44:22.441Z,9.40
2022-11-16T20:46:52.733Z,8.80
2022-11-16T20:49:21.920Z,9.50
2022-11-16T20:51:51.208Z,8.10
2022-11-16T20:54:20.128Z,10.10
2022-11-16T20:56:51.026Z,8.70
2022-11-16T20:59:19.027Z,12.30
2022-11-16T21:01:47.777Z,9.90
2022-11-16T21:04:16.058Z,9.70
2022-11-16T21:06:44.108Z,8.90
2022-11-16T21:09:12.660Z,12.60
2022-11-16T21:11:59.340Z,10.50
2022-11-16T21:14:27.581Z,12.80
2022-11-16T21:16:55.422Z,9.10
2022-11-16T21:19:23.296Z,10.10
2022-11-16T21:21:51.104Z,9.80
2022-11-16T21:24:18.878Z,13.80
2022-11-16T21:26:46.709Z,11.60
2022-11-16T21:29:14.613Z,14.30
2022-11-16T21:31:42.480Z,9.60
2022-11-16T21:34:10.301Z,12.10
2022-11-16T21:36:38.378Z,10.50
2022-11-16T21:39:06.236Z,10.90
2022-11-16T21:41:34.621Z,13.80
2022-11-16T21:44:02.443Z,13.60
2022-11-16T21:46:30.369Z,13.30
2022-11-16T21:48:58.208Z,11.60
2022-11-16T21:51:27.299Z,10.10
2022-11-16T21:53:55.404Z,12.50
2022-11-16T21:56:24.721Z,14.70
2022-11-16T21:58:53.405Z,13.10
2022-11-16T22:01:22.162Z,11.50
2022-11-16T22:04:10.020Z,11.90
2022-11-16T22:06:56.581Z,11.50
2022-11-16T22:09:24.466Z,13.20
2022-11-16T22:11:52.444Z,12.70
2022-11-16T22:14:20.387Z,12.60
2022-11-16T22:16:48.376Z,15.40
2022-11-16T22:19:16.303Z,14.10
2022-11-16T22:21:44.172Z,12.20
2022-11-16T22:24:12.173Z,13.50
2022-11-16T22:26:41.162Z,13.00
2022-11-16T22:29:09.121Z,13.00
2022-11-16T22:31:37.036Z,14.50
2022-11-16T22:34:04.940Z,16.80
2022-11-16T22:36:32.865Z,14.30
2022-11-16T22:39:01.069Z,16.00
2022-11-16T22:41:29.261Z,15.00
2022-11-16T22:43:57.230Z,15.40
2022-11-16T22:46:25.142Z,14.60
2022-11-16T22:48:53.039Z,12.50
2022-11-16T22:51:26.075Z,15.00
2022-11-16T22:53:55.712Z,14.20
2022-11-16T22:56:23.768Z,14.00
2022-11-16T22:58:51.969Z,15.70
2022-11-16T23:01:20.220Z,17.00
2022-11-16T23:03:48.564Z,13.10
2022-11-16T23:06:16.926Z,15.90
2022-11-16T23:08:44.849Z,15.30
2022-11-16T23:11:36.545Z,14.80
2022-11-16T23:14:24.167Z,18.80
2022-11-16T23:16:52.540Z,14.40
2022-11-16T23:19:39.601Z,15.70
2022-11-16T23:22:30.667Z,16.70
2022-11-16T23:25:17.300Z,16.40
2022-11-16T23:28:06.722Z,20.30
2022-11-16T23:30:35.097Z,17.10
2022-11-16T23:33:06.199Z,16.30
2022-11-16T23:35:34.104Z,15.40
2022-11-16T23:38:04.304Z,15.80
2022-11-16T23:40:37.473Z,14.40
2022-11-16T23:43:25.300Z,18.40
2022-11-16T23:45:53.227Z,16.30
2022-11-16T23:48:23.308Z,18.70
2022-11-16T23:50:51.285Z,20.00
2022-11-16T23:53:19.215Z,17.80
2022-11-16T23:55:48.550Z,20.10
2022-11-16T23:58:16.771Z,18.30
